Time;durP1;ratioP1;P1;durP2;ratioP2;P2;SDS_P1;SDS_P2;PMS_P1;PMS_P2;Temp;Humidity;BMP_temperature;BMP_pressure;BME280_temperature;BME280_humidity;BME280_pressure;Samples;Min_cycle;Max_cycle;Signal;HPM_P1;HPM_P2
2023/10/25 00:00:52;;;;;;;4.30;4.00;;;12.00;99.90;;;;;;5036746;28;20214;-83
2023/10/25 00:03:21;;;;;;;3.20;3.10;;;11.90;99.90;;;;;;5040291;28;20233;-81
2023/10/25 00:05:50;;;;;;;4.43;4.22;;;11.90;99.90;;;;;;5050841;28;20225;-82
2023/10/25 00:08:17;;;;;;;1.60;1.55;;;11.90;99.90;;;;;;5035221;28;20744;-85
2023/10/25 00:10:44;;;;;;;2.47;2.20;;;11.90;99.90;;;;;;5030297;28;20212;-82
2023/10/25 00:13:12;;;;;;;1.38;1.35;;;11.90;99.90;;;;;;5040326;28;20185;-82
2023/10/25 00:15:40;;;;;;;2.63;2.42;;;11.80;99.90;;;;;;5028918;28;20217;-84
2023/10/25 00:18:08;;;;;;;2.40;2.17;;;11.80;99.90;;;;;;5034127;28;20221;-85
2023/10/25 01:06:07;;;;;;;2.70;2.45;;;11.70;99.90;;;;;;5023917;28;20193;-83
2023/10/25 01:08:34;;;;;;;3.33;3.13;;;11.70;99.90;;;;;;5021383;28;20252;-83
2023/10/25 01:11:01;;;;;;;1.88;1.77;;;11.70;99.90;;;;;;5008597;28;20308;-82
2023/10/25 01:13:28;;;;;;;2.10;1.85;;;11.70;99.90;;;;;;5029093;28;20300;-79
2023/10/25 01:15:55;;;;;;;1.92;1.83;;;11.70;99.90;;;;;;5020332;28;20205;-78
2023/10/25 01:18:26;;;;;;;2.30;2.20;;;11.70;99.90;;;;;;5026735;28;20213;-81
2023/10/25 01:20:53;;;;;;;2.05;1.98;;;11.70;99.90;;;;;;5028975;28;20259;-82
2023/10/25 01:23:20;;;;;;;1.25;1.25;;;11.70;99.90;;;;;;5038942;28;20556;-79
2023/10/25 01:25:48;;;;;;;1.70;1.60;;;11.70;99.90;;;;;;5024573;28;20306;-86
2023/10/25 01:28:15;;;;;;;3.17;3.08;;;11.70;99.90;;;;;;5029438;28;20197;-80
2023/10/25 01:30:43;;;;;;;3.88;3.60;;;11.70;99.90;;;;;;5034103;28;20258;-82
2023/10/25 01:33:11;;;;;;;1.80;1.70;;;11.70;99.90;;;;;;5022364;28;20281;-84
2023/10/25 01:35:39;;;;;;;1.95;1.85;;;11.70;99.90;;;;;;5033665;28;20267;-84
2023/10/25 01:38:06;;;;;;;1.80;1.70;;;11.70;99.90;;;;;;5023661;28;20295;-84
2023/10/25 01:40:35;;;;;;;2.38;2.28;;;11.70;99.90;;;;;;5027286;28;20263;-88
2023/10/25 01:43:04;;;;;;;2.63;2.53;;;11.70;99.90;;;;;;5026008;28;20252;-87
2023/10/25 01:45:32;;;;;;;4.68;4.25;;;11.60;99.90;;;;;;5021742;28;20201;-85
2023/10/25 01:47:59;;;;;;;4.88;4.47;;;11.60;99.90;;;;;;5024604;28;20233;-81
2023/10/25 01:50:28;;;;;;;2.97;2.78;;;11.60;99.90;;;;;;5030921;28;20197;-83
2023/10/25 01:52:55;;;;;;;2.15;2.05;;;11.60;99.90;;;;;;5029513;28;20244;-88
2023/10/25 01:55:24;;;;;;;3.35;3.15;;;11.60;99.90;;;;;;5031059;28;20273;-86
2023/10/25 01:57:51;;;;;;;3.03;2.58;;;11.80;99.90;;;;;;5020918;28;20241;-79
2023/10/25 02:00:19;;;;;;;2.83;2.38;;;11.60;99.90;;;;;;5031223;28;20212;-81
2023/10/25 02:02:46;;;;;;;2.72;2.58;;;11.60;99.90;;;;;;5028545;28;20304;-79
2023/10/25 02:05:14;;;;;;;2.05;1.95;;;11.60;99.90;;;;;;5035535;28;20511;-81
2023/10/25 02:07:41;;;;;;;2.50;2.35;;;11.60;99.90;;;;;;5023230;28;20265;-84
2023/10/25 02:10:08;;;;;;;1.83;1.73;;;11.60;99.90;;;;;;5033710;28;20243;-81
2023/10/25 02:12:35;;;;;;;3.63;3.42;;;11.60;99.90;;;;;;5024425;28;20267;-81
2023/10/25 02:15:03;;;;;;;6.22;5.68;;;11.60;99.90;;;;;;5033502;28;20243;-85
2023/10/25 02:17:32;;;;;;;3.20;2.97;;;11.60;99.90;;;;;;5020059;28;20213;-86
2023/10/25 02:19:59;;;;;;;5.15;4.68;;;11.60;99.90;;;;;;5022277;28;20209;-82
2023/10/25 02:22:27;;;;;;;4.70;4.40;;;11.60;99.90;;;;;;5022536;28;20217;-82
2023/10/25 02:24:54;;;;;;;6.60;6.10;;;11.60;99.90;;;;;;5035334;28;20205;-81
2023/10/25 02:27:22;;;;;;;3.88;3.58;;;11.70;99.90;;;;;;5048338;28;20193;-82
2023/10/25 02:29:50;;;;;;;3.65;3.55;;;11.70;99.90;;;;;;5037744;28;20217;-82
2023/10/25 02:32:17;;;;;;;12.82;5.20;;;11.70;99.90;;;;;;5038924;28;20193;-81
2023/10/25 02:34:46;;;;;;;4.18;3.63;;;11.70;99.90;;;;;;5029507;28;20233;-80
2023/10/25 02:37:13;;;;;;;3.78;2.90;;;11.70;99.90;;;;;;5038401;28;20567;-81
2023/10/25 02:39:42;;;;;;;3.00;2.80;;;11.70;99.90;;;;;;5041510;28;20201;-83
2023/10/25 02:42:12;;;;;;;6.40;6.05;;;11.70;99.90;;;;;;5048655;28;20205;-79
2023/10/25 02:44:39;;;;;;;2.05;1.95;;;11.70;99.90;;;;;;5040530;28;20248;-78
2023/10/25 02:47:06;;;;;;;5.50;5.07;;;11.70;99.90;;;;;;5034574;28;20209;-82
2023/10/25 02:49:33;;;;;;;1.65;1.55;;;11.70;99.90;;;;;;5021200;28;20217;-80
2023/10/25 02:52:00;;;;;;;8.40;7.70;;;12.00;99.90;;;;;;5015910;28;20229;-82
2023/10/25 02:54:30;;;;;;;6.15;5.70;;;11.70;99.90;;;;;;5022730;28;20248;-89
2023/10/25 02:56:57;;;;;;;6.95;6.43;;;11.70;99.90;;;;;;5029326;28;20221;-85
2023/10/25 02:59:25;;;;;;;6.80;4.20;;;11.70;99.90;;;;;;5026478;28;20209;-81
2023/10/25 03:01:52;;;;;;;5.20;4.75;;;11.70;99.90;;;;;;5030583;28;20273;-85
2023/10/25 03:04:19;;;;;;;6.22;5.82;;;11.80;99.90;;;;;;5019379;28;20236;-85
2023/10/25 03:06:47;;;;;;;4.93;4.47;;;11.80;99.90;;;;;;5031053;28;20209;-80
2023/10/25 03:09:15;;;;;;;2.72;2.63;;;11.80;99.90;;;;;;5019222;28;20206;-86
2023/10/25 03:11:43;;;;;;;4.60;4.22;;;11.80;99.90;;;;;;5024531;28;20281;-82
2023/10/25 03:14:10;;;;;;;5.63;5.22;;;11.80;99.90;;;;;;5020141;28;20231;-82
2023/10/25 03:16:37;;;;;;;5.00;4.78;;;11.70;99.90;;;;;;5015088;28;20228;-84
2023/10/25 03:19:04;;;;;;;4.07;3.88;;;11.70;99.90;;;;;;5019080;28;20213;-84
2023/10/25 03:21:31;;;;;;;2.45;2.35;;;11.70;99.90;;;;;;5029942;28;20309;-80
2023/10/25 03:23:59;;;;;;;5.03;4.63;;;11.80;99.90;;;;;;5034609;28;20272;-83
2023/10/25 03:26:25;;;;;;;4.38;4.18;;;11.80;99.90;;;;;;5028808;28;20197;-79
2023/10/25 03:28:52;;;;;;;4.13;3.92;;;11.80;99.90;;;;;;5021277;28;20297;-81
2023/10/25 03:31:20;;;;;;;3.63;3.38;;;11.80;99.90;;;;;;5027785;28;20735;-84
2023/10/25 03:33:48;;;;;;;5.18;4.88;;;11.80;99.90;;;;;;5029484;28;20283;-82
2023/10/25 03:36:15;;;;;;;7.28;6.60;;;11.80;99.90;;;;;;5027614;28;20205;-79
2023/10/25 03:38:42;;;;;;;8.25;7.72;;;11.80;99.90;;;;;;5029624;28;20216;-79
2023/10/25 03:41:09;;;;;;;3.60;3.38;;;11.80;99.90;;;;;;5021690;28;20558;-79
2023/10/25 03:43:37;;;;;;;4.80;4.43;;;11.80;99.90;;;;;;5026271;28;20225;-81
2023/10/25 03:46:07;;;;;;;5.30;5.00;;;11.70;99.90;;;;;;5023438;28;20224;-82
2023/10/25 03:48:39;;;;;;;5.93;5.35;;;11.80;99.90;;;;;;5028977;28;20204;-81
2023/10/25 03:51:07;;;;;;;4.38;4.15;;;12.00;99.90;;;;;;5022545;28;20202;-82
2023/10/25 03:53:36;;;;;;;3.53;3.03;;;11.80;99.90;;;;;;5023658;28;20209;-82
2023/10/25 03:56:03;;;;;;;8.38;6.70;;;11.80;99.90;;;;;;5016624;28;20204;-81
2023/10/25 03:58:31;;;;;;;5.63;4.47;;;11.70;99.90;;;;;;5028042;28;20482;-81
2023/10/25 04:01:08;;;;;;;2.17;1.98;;;11.80;99.90;;;;;;5033816;28;20462;-78
2023/10/25 04:03:38;;;;;;;4.65;4.43;;;11.70;99.90;;;;;;5019864;28;20282;-80
2023/10/25 04:06:07;;;;;;;6.25;5.68;;;11.80;99.90;;;;;;5034266;28;20243;-81
2023/10/25 04:08:34;;;;;;;4.57;4.28;;;11.80;99.90;;;;;;5018902;28;20209;-80
2023/10/25 04:11:02;;;;;;;2.22;2.13;;;11.80;99.90;;;;;;5018169;28;20222;-82
2023/10/25 04:13:29;;;;;;;3.88;3.72;;;11.80;99.90;;;;;;5018616;28;20543;-83
2023/10/25 04:15:58;;;;;;;6.38;5.93;;;11.80;99.90;;;;;;5017614;28;20518;-83
2023/10/25 04:18:30;;;;;;;4.80;2.42;;;11.80;99.90;;;;;;5024460;28;20197;-79
2023/10/25 04:20:59;;;;;;;3.53;2.15;;;11.70;99.90;;;;;;5018878;28;20586;-78
2023/10/25 04:23:28;;;;;;;6.53;5.50;;;11.80;99.90;;;;;;5029406;28;20241;-79
2023/10/25 04:26:09;;;;;;;3.03;2.88;;;11.70;99.90;;;;;;5032140;28;20190;-81
2023/10/25 04:28:38;;;;;;;4.30;3.88;;;11.70;99.90;;;;;;5029542;28;20233;-79
2023/10/25 04:31:10;;;;;;;3.97;3.45;;;11.70;99.90;;;;;;5012096;28;20203;-80
2023/10/25 04:33:37;;;;;;;3.72;3.53;;;11.70;99.90;;;;;;5019653;28;20217;-83
2023/10/25 04:36:05;;;;;;;2.05;1.95;;;11.70;99.90;;;;;;5014407;28;20468;-81
2023/10/25 04:38:33;;;;;;;6.75;6.25;;;11.70;99.90;;;;;;5029058;28;20238;-80
2023/10/25 04:41:00;;;;;;;2.72;2.55;;;11.70;99.90;;;;;;5036024;28;20200;-79
2023/10/25 04:43:27;;;;;;;6.63;6.13;;;11.70;99.90;;;;;;5019972;28;20296;-82
2023/10/25 04:45:57;;;;;;;1.58;1.50;;;11.60;99.90;;;;;;5013636;28;20259;-81
2023/10/25 04:48:25;;;;;;;5.80;4.22;;;11.60;99.90;;;;;;5024997;28;20491;-83
2023/10/25 04:50:52;;;;;;;3.05;2.85;;;11.60;99.90;;;;;;5026925;28;20205;-81
2023/10/25 04:53:19;;;;;;;2.28;2.13;;;11.60;99.90;;;;;;5019290;28;20236;-86
2023/10/25 04:55:47;;;;;;;1.83;1.73;;;11.60;99.90;;;;;;5027194;28;20231;-82
2023/10/25 04:58:14;;;;;;;2.63;2.50;;;11.60;99.90;;;;;;5038351;28;20241;-83
2023/10/25 05:00:41;;;;;;;2.50;2.40;;;11.60;99.90;;;;;;5027920;28;20221;-82
2023/10/25 05:03:11;;;;;;;3.55;3.35;;;11.50;99.90;;;;;;5021068;28;20238;-80
2023/10/25 05:05:39;;;;;;;1.35;1.35;;;11.60;99.90;;;;;;5024813;28;20212;-81
2023/10/25 05:08:09;;;;;;;4.63;4.38;;;11.70;99.90;;;;;;5027940;28;20239;-81
2023/10/25 05:10:37;;;;;;;2.97;2.78;;;11.70;99.90;;;;;;5023546;28;20238;-83
2023/10/25 05:13:04;;;;;;;1.80;1.70;;;11.70;99.90;;;;;;5028137;28;20198;-79
2023/10/25 05:15:33;;;;;;;0.90;0.90;;;11.70;99.90;;;;;;5026659;28;20251;-79
2023/10/25 05:18:01;;;;;;;2.55;2.45;;;11.70;99.90;;;;;;5021614;28;20206;-84
2023/10/25 05:20:28;;;;;;;2.92;2.83;;;11.70;99.90;;;;;;5029332;28;20374;-83
2023/10/25 05:22:58;;;;;;;3.30;3.15;;;11.70;99.90;;;;;;5032822;28;20242;-82
2023/10/25 05:25:26;;;;;;;0.88;0.88;;;11.70;99.90;;;;;;5025301;28;20203;-81
2023/10/25 05:27:53;;;;;;;2.05;1.95;;;11.70;99.90;;;;;;5021685;28;20205;-84
2023/10/25 05:30:21;;;;;;;4.15;3.92;;;11.60;99.90;;;;;;5026665;28;20209;-82
2023/10/25 05:32:52;;;;;;;2.65;2.45;;;11.60;99.90;;;;;;5029338;28;20212;-82
2023/10/25 05:35:19;;;;;;;1.92;1.83;;;11.60;99.90;;;;;;5017892;28;20252;-82
2023/10/25 05:37:46;;;;;;;6.80;4.63;;;11.50;99.90;;;;;;5030335;28;20215;-83
2023/10/25 05:40:14;;;;;;;5.55;3.85;;;11.50;99.90;;;;;;5034111;28;20252;-83
2023/10/25 05:42:48;;;;;;;5.15;4.75;;;11.50;99.90;;;;;;5028867;28;20193;-81
2023/10/25 05:45:16;;;;;;;4.18;3.92;;;11.50;99.90;;;;;;5032110;28;20182;-79
2023/10/25 05:47:44;;;;;;;3.83;3.63;;;11.70;99.90;;;;;;5025736;28;20416;-86
2023/10/25 05:50:12;;;;;;;1.48;1.48;;;11.50;99.90;;;;;;5017256;28;20521;-79
2023/10/25 05:52:45;;;;;;;5.15;4.63;;;11.50;99.90;;;;;;5018894;28;20224;-85
2023/10/25 05:55:14;;;;;;;2.08;1.98;;;11.50;99.90;;;;;;5029385;28;20237;-86
2023/10/25 05:57:41;;;;;;;1.77;1.67;;;11.50;99.90;;;;;;5034764;28;20280;-81
2023/10/25 06:00:09;;;;;;;1.55;1.45;;;11.50;99.90;;;;;;5021101;28;20273;-82
2023/10/25 06:02:38;;;;;;;1.73;1.63;;;11.60;99.90;;;;;;5011432;28;20209;-83
2023/10/25 06:05:10;;;;;;;2.72;2.50;;;11.60;99.90;;;;;;5020322;28;20248;-81
2023/10/25 06:07:39;;;;;;;3.00;2.90;;;11.50;99.90;;;;;;5030718;28;20273;-79
2023/10/25 06:10:07;;;;;;;1.35;1.35;;;11.50;99.90;;;;;;5044232;28;20232;-81
2023/10/25 06:12:34;;;;;;;0.70;0.70;;;11.60;99.90;;;;;;5027764;28;20202;-80
2023/10/25 06:15:06;;;;;;;1.60;1.50;;;11.60;99.90;;;;;;5045729;28;20193;-79
2023/10/25 06:17:33;;;;;;;2.65;2.53;;;11.60;99.90;;;;;;5052355;28;20269;-84
2023/10/25 06:20:01;;;;;;;1.58;1.58;;;11.60;99.90;;;;;;5038400;28;20240;-81
2023/10/25 06:22:29;;;;;;;1.15;1.15;;;11.60;99.90;;;;;;5032834;28;20233;-82
2023/10/25 06:24:56;;;;;;;2.45;2.35;;;11.60;99.90;;;;;;5023700;28;20489;-82
2023/10/25 06:27:23;;;;;;;3.80;2.28;;;11.60;99.90;;;;;;5020170;28;20236;-80
2023/10/25 06:29:50;;;;;;;0.70;0.70;;;11.60;99.90;;;;;;5027569;28;20280;-82
2023/10/25 06:32:17;;;;;;;1.45;1.35;;;11.70;99.90;;;;;;5025584;28;20419;-81
2023/10/25 06:34:44;;;;;;;0.88;0.88;;;11.60;99.90;;;;;;5023642;28;20287;-80
2023/10/25 06:37:11;;;;;;;0.98;0.98;;;11.60;99.90;;;;;;5017616;28;20199;-83
2023/10/25 06:39:41;;;;;;;0.85;0.85;;;11.60;99.90;;;;;;5018907;28;20285;-85
2023/10/25 06:42:09;;;;;;;1.13;1.13;;;11.60;99.90;;;;;;5027938;28;20239;-81
2023/10/25 06:44:38;;;;;;;0.85;0.85;;;11.60;99.90;;;;;;5010325;28;20550;-82
2023/10/25 06:47:06;;;;;;;1.50;1.40;;;11.60;99.90;;;;;;5017110;28;20197;-83
2023/10/25 06:49:33;;;;;;;0.40;0.40;;;11.60;99.90;;;;;;5012153;28;20202;-83
2023/10/25 06:52:01;;;;;;;0.73;0.73;;;11.60;99.90;;;;;;5016991;28;20493;-82
2023/10/25 06:54:28;;;;;;;0.98;0.98;;;11.60;99.90;;;;;;5031222;28;20193;-77
2023/10/25 06:56:55;;;;;;;1.85;1.25;;;11.70;99.90;;;;;;5016810;28;20273;-83
2023/10/25 06:59:22;;;;;;;0.60;0.60;;;11.60;99.90;;;;;;5031488;28;20228;-85
2023/10/25 07:01:59;;;;;;;0.30;0.30;;;11.70;99.90;;;;;;5024643;28;20209;-84
2023/10/25 07:04:28;;;;;;;1.35;1.35;;;11.70;99.90;;;;;;5024324;28;20621;-80
2023/10/25 07:06:56;;;;;;;0.75;0.75;;;11.60;99.90;;;;;;5013626;28;20390;-81
2023/10/25 07:09:23;;;;;;;1.23;1.17;;;11.70;99.90;;;;;;5024369;28;20254;-81
2023/10/25 07:11:50;;;;;;;0.75;0.75;;;11.70;99.90;;;;;;5027773;28;20194;-81
2023/10/25 07:14:17;;;;;;;2.17;2.03;;;11.70;99.90;;;;;;5033957;28;20216;-83
2023/10/25 07:16:44;;;;;;;1.02;0.90;;;11.70;99.90;;;;;;5028952;28;20212;-79
2023/10/25 07:19:11;;;;;;;0.50;0.50;;;11.70;99.90;;;;;;5027745;28;20216;-80
2023/10/25 07:21:38;;;;;;;0.73;0.73;;;11.70;99.90;;;;;;5034502;28;20245;-81
2023/10/25 07:24:05;;;;;;;0.82;0.82;;;11.70;99.90;;;;;;5032342;28;20229;-81
2023/10/25 07:26:34;;;;;;;1.58;1.48;;;11.70;99.90;;;;;;5020237;28;20293;-83
2023/10/25 07:29:01;;;;;;;0.95;0.95;;;11.60;99.90;;;;;;5021481;28;20212;-84
2023/10/25 07:31:28;;;;;;;1.75;1.65;;;11.60;99.90;;;;;;5019028;28;20269;-82
2023/10/25 07:33:55;;;;;;;1.08;1.08;;;11.60;99.90;;;;;;5019693;28;20260;-80
2023/10/25 07:36:23;;;;;;;0.40;0.40;;;11.70;99.90;;;;;;5024624;28;20204;-81
2023/10/25 07:38:50;;;;;;;1.08;1.08;;;11.70;99.90;;;;;;5011590;28;20276;-85
2023/10/25 07:41:16;;;;;;;1.10;1.08;;;11.70;99.90;;;;;;5016533;28;20538;-82
2023/10/25 07:43:43;;;;;;;0.65;0.65;;;11.80;99.90;;;;;;5018785;28;20685;-79
2023/10/25 07:46:10;;;;;;;2.72;2.53;;;11.60;99.90;;;;;;5016049;28;20261;-83
2023/10/25 07:48:37;;;;;;;2.45;2.35;;;11.70;99.90;;;;;;5016619;28;20244;-80
2023/10/25 07:51:04;;;;;;;1.63;1.52;;;11.80;99.90;;;;;;5016003;28;20237;-82
2023/10/25 07:53:32;;;;;;;0.85;0.85;;;11.90;99.90;;;;;;5019441;28;20241;-79
2023/10/25 07:56:03;;;;;;;0.85;0.85;;;11.90;99.90;;;;;;5019897;28;20252;-80
2023/10/25 07:58:32;;;;;;;1.65;1.55;;;11.90;99.90;;;;;;5019336;28;20214;-78
2023/10/25 08:00:59;;;;;;;0.40;0.40;;;12.00;99.90;;;;;;5029823;28;20216;-78
2023/10/25 08:03:28;;;;;;;1.95;1.85;;;11.90;99.90;;;;;;5030935;28;20202;-80
2023/10/25 08:05:56;;;;;;;1.10;1.10;;;12.00;99.90;;;;;;5028034;28;20205;-82
2023/10/25 08:08:23;;;;;;;0.40;0.40;;;12.00;99.90;;;;;;5025903;28;20198;-80
2023/10/25 08:11:02;;;;;;;0.60;0.60;;;12.00;99.90;;;;;;5020969;28;20288;-81
2023/10/25 08:13:30;;;;;;;1.63;1.52;;;12.00;99.90;;;;;;5013412;28;20212;-89
2023/10/25 08:15:58;;;;;;;1.85;1.50;;;12.00;99.90;;;;;;5024096;28;20422;-83
2023/10/25 08:18:31;;;;;;;1.23;1.13;;;12.00;99.90;;;;;;5018264;28;20260;-80
2023/10/25 08:20:58;;;;;;;0.30;0.30;;;12.00;99.90;;;;;;5025929;28;20208;-83
2023/10/25 08:23:27;;;;;;;2.83;2.60;;;12.10;99.90;;;;;;5025234;28;20282;-80
2023/10/25 08:25:59;;;;;;;0.63;0.63;;;12.10;99.90;;;;;;5023878;28;20237;-84
2023/10/25 08:28:25;;;;;;;0.40;0.40;;;12.20;99.90;;;;;;5024902;28;20528;-82
2023/10/25 08:30:52;;;;;;;0.63;0.63;;;12.20;99.90;;;;;;5020942;28;20276;-86
2023/10/25 08:33:19;;;;;;;0.90;0.90;;;12.30;99.90;;;;;;5012907;28;20286;-87
2023/10/25 08:35:48;;;;;;;1.08;1.08;;;12.30;99.90;;;;;;5017593;28;20218;-81
2023/10/25 08:38:15;;;;;;;0.50;0.50;;;12.30;99.90;;;;;;5016616;28;20329;-86
2023/10/25 08:40:42;;;;;;;1.60;1.52;;;12.40;99.90;;;;;;5009828;28;20242;-81
2023/10/25 08:43:13;;;;;;;0.73;0.73;;;12.40;99.90;;;;;;5011232;28;20288;-88
2023/10/25 08:45:44;;;;;;;0.95;0.73;;;12.30;99.90;;;;;;5018619;28;20233;-84
2023/10/25 08:48:11;;;;;;;0.80;0.80;;;12.50;99.90;;;;;;5028913;28;20201;-79
2023/10/25 08:50:38;;;;;;;1.58;1.40;;;12.90;99.90;;;;;;5019221;28;20210;-81
2023/10/25 08:53:05;;;;;;;0.40;0.40;;;13.20;99.90;;;;;;5033448;28;20190;-82
2023/10/25 08:55:32;;;;;;;0.50;0.50;;;13.90;99.90;;;;;;5022693;28;20214;-86
2023/10/25 08:57:59;;;;;;;1.87;1.77;;;14.20;99.90;;;;;;5012603;28;20447;-82
2023/10/25 09:00:30;;;;;;;0.60;0.60;;;14.10;99.90;;;;;;5021581;28;20523;-80
2023/10/25 09:03:33;;;;;;;0.40;0.40;;;13.90;99.90;;;;;;5013205;28;20418;-86
2023/10/25 09:06:05;;;;;;;2.20;2.10;;;13.60;99.90;;;;;;5021399;28;20460;-82
2023/10/25 09:08:33;;;;;;;0.53;0.53;;;13.40;99.90;;;;;;5019843;28;20458;-83
2023/10/25 09:11:11;;;;;;;1.37;1.27;;;13.20;99.90;;;;;;5012713;28;20467;-84
2023/10/25 09:13:43;;;;;;;0.87;0.87;;;13.50;99.90;;;;;;5015840;28;20437;-83
2023/10/25 09:16:12;;;;;;;0.50;0.50;;;13.50;99.90;;;;;;5023028;28;20458;-87
2023/10/25 09:18:40;;;;;;;0.50;0.50;;;13.40;99.90;;;;;;5020160;28;20514;-85
2023/10/25 09:21:10;;;;;;;0.52;0.52;;;13.30;99.90;;;;;;5013110;28;20509;-86
2023/10/25 09:23:39;;;;;;;0.50;0.50;;;13.20;99.90;;;;;;5021136;28;20220;-88
2023/10/25 09:26:15;;;;;;;0.47;0.47;;;13.30;99.90;;;;;;5010998;28;21392;-81
2023/10/25 09:28:45;;;;;;;0.40;0.40;;;13.30;99.90;;;;;;5016122;28;20447;-81
2023/10/25 09:31:22;;;;;;;0.50;0.50;;;13.20;99.90;;;;;;5011048;28;20229;-83
2023/10/25 09:33:50;;;;;;;0.50;0.50;;;13.00;99.90;;;;;;5017405;28;20217;-83
2023/10/25 09:36:21;;;;;;;0.40;0.40;;;12.80;99.90;;;;;;5025765;28;20447;-87
2023/10/25 09:38:53;;;;;;;1.03;1.03;;;12.80;99.90;;;;;;5021334;28;20440;-82
2023/10/25 09:41:21;;;;;;;0.80;0.80;;;12.90;99.90;;;;;;5015534;28;20464;-86
2023/10/25 09:43:59;;;;;;;0.77;0.77;;;12.90;99.90;;;;;;5025771;28;20185;-81
2023/10/25 09:46:30;;;;;;;0.93;0.93;;;12.90;99.90;;;;;;5035328;28;20189;-81
2023/10/25 09:49:06;;;;;;;0.60;0.60;;;13.00;99.90;;;;;;5022207;28;20210;-81
2023/10/25 09:52:05;;;;;;;2.15;2.08;;;12.80;99.90;;;;;;5029122;28;20276;-82
2023/10/25 09:54:37;;;;;;;0.40;0.40;;;12.80;99.90;;;;;;5036718;28;20182;-82
2023/10/25 09:57:05;;;;;;;0.40;0.40;;;12.80;99.90;;;;;;5039021;28;20209;-81
2023/10/25 09:59:33;;;;;;;0.50;0.50;;;12.80;99.90;;;;;;5032682;28;20213;-85
2023/10/25 10:02:01;;;;;;;0.70;0.70;;;12.70;99.90;;;;;;5023995;28;20229;-84
2023/10/25 10:04:37;;;;;;;1.15;1.15;;;12.70;99.90;;;;;;5022943;28;20237;-86
2023/10/25 10:07:17;;;;;;;1.42;1.42;;;12.70;99.90;;;;;;5024411;28;20268;-85
2023/10/25 10:10:12;;;;;;;0.40;0.40;;;12.70;99.90;;;;;;5020725;28;20313;-82
2023/10/25 10:12:39;;;;;;;1.60;1.50;;;12.60;99.90;;;;;;5023364;28;20235;-81
2023/10/25 10:15:07;;;;;;;0.75;0.75;;;12.60;99.90;;;;;;5036081;28;20205;-81
2023/10/25 10:17:42;;;;;;;2.40;1.63;;;12.60;99.90;;;;;;5028738;28;20211;-80
2023/10/25 10:20:42;;;;;;;1.17;1.17;;;12.60;99.90;;;;;;5019332;28;20229;-80
2023/10/25 10:23:16;;;;;;;1.52;1.42;;;12.60;99.90;;;;;;4993159;28;20209;-82
2023/10/25 10:25:50;;;;;;;1.45;1.40;;;12.60;99.90;;;;;;5029614;28;20228;-81
2023/10/25 10:28:43;;;;;;;0.80;0.80;;;12.80;99.90;;;;;;5022281;28;20240;-83
2023/10/25 10:31:13;;;;;;;0.65;0.65;;;12.90;99.90;;;;;;5011294;28;20244;-84
2023/10/25 10:33:49;;;;;;;0.50;0.50;;;13.00;99.90;;;;;;4990616;28;20230;-84
2023/10/25 10:36:33;;;;;;;0.47;0.47;;;13.20;99.90;;;;;;5010213;28;20244;-86
2023/10/25 10:39:11;;;;;;;2.10;1.73;;;13.40;99.90;;;;;;5018188;28;20293;-82
2023/10/25 10:41:40;;;;;;;0.60;0.60;;;13.50;99.90;;;;;;5021849;28;20470;-81
2023/10/25 10:44:07;;;;;;;3.07;2.30;;;13.90;99.90;;;;;;5004687;28;20483;-82
2023/10/25 10:46:50;;;;;;;0.60;0.60;;;14.10;99.90;;;;;;5018931;28;20439;-81
2023/10/25 10:49:20;;;;;;;1.10;1.10;;;14.10;99.90;;;;;;5015678;28;20531;-82
2023/10/25 10:51:49;;;;;;;1.93;1.83;;;14.20;99.90;;;;;;5015934;28;20424;-85
2023/10/25 10:54:16;;;;;;;0.70;0.70;;;13.90;99.90;;;;;;5020331;28;20455;-85
2023/10/25 10:56:44;;;;;;;1.67;1.57;;;14.00;99.90;;;;;;5017050;28;20518;-86
2023/10/25 10:59:11;;;;;;;1.27;0.97;;;14.00;99.90;;;;;;5012664;28;20417;-81
2023/10/25 11:01:38;;;;;;;0.50;0.50;;;14.00;99.90;;;;;;5015875;28;20475;-85
2023/10/25 11:04:07;;;;;;;0.80;0.80;;;14.00;99.90;;;;;;5018262;28;20566;-81
2023/10/25 11:06:39;;;;;;;1.33;1.27;;;14.00;99.90;;;;;;5010991;28;20499;-81
2023/10/25 11:09:08;;;;;;;1.00;1.00;;;13.90;99.90;;;;;;5016223;28;20497;-83
2023/10/25 11:11:35;;;;;;;0.97;0.97;;;13.90;99.90;;;;;;5020260;28;20831;-86
2023/10/25 11:14:03;;;;;;;1.33;1.30;;;14.00;99.90;;;;;;5011862;28;20493;-81
2023/10/25 11:16:29;;;;;;;1.60;1.50;;;14.00;99.90;;;;;;5014593;28;20482;-84
2023/10/25 11:19:09;;;;;;;0.50;0.50;;;14.10;99.90;;;;;;5012335;28;20417;-79
2023/10/25 11:21:36;;;;;;;0.60;0.60;;;14.00;99.90;;;;;;5018668;28;20421;-81
2023/10/25 11:24:06;;;;;;;1.27;0.80;;;14.20;99.90;;;;;;5014195;28;20417;-80
2023/10/25 11:26:37;;;;;;;0.50;0.50;;;14.40;99.90;;;;;;5014748;28;20468;-84
2023/10/25 11:29:05;;;;;;;0.90;0.90;;;14.70;99.90;;;;;;5004774;28;20450;-85
2023/10/25 11:31:33;;;;;;;0.90;0.90;;;14.70;99.90;;;;;;5012831;28;20774;-87
2023/10/25 11:34:00;;;;;;;0.90;0.90;;;14.80;99.90;;;;;;5025050;28;20438;-81
2023/10/25 11:36:29;;;;;;;1.37;1.27;;;14.70;99.90;;;;;;5023452;28;20442;-84
2023/10/25 11:39:04;;;;;;;1.57;1.30;;;14.50;99.90;;;;;;5022221;28;20440;-82
2023/10/25 11:41:31;;;;;;;0.50;0.50;;;14.60;99.90;;;;;;5017305;28;20454;-80
2023/10/25 11:44:00;;;;;;;1.93;1.83;;;14.70;99.90;;;;;;5017824;28;20496;-85
2023/10/25 11:46:35;;;;;;;1.83;1.73;;;14.90;99.90;;;;;;5017882;28;20478;-82
2023/10/25 11:49:03;;;;;;;0.60;0.60;;;15.00;99.90;;;;;;5034287;28;20434;-79
2023/10/25 11:51:35;;;;;;;0.50;0.50;;;15.10;99.90;;;;;;5035140;28;20401;-81
2023/10/25 11:54:02;;;;;;;1.23;1.23;;;15.30;99.90;;;;;;5024124;28;20442;-81
2023/10/25 11:56:44;;;;;;;0.60;0.60;;;15.30;99.90;;;;;;5022276;28;20435;-81
2023/10/25 11:59:11;;;;;;;0.60;0.60;;;15.30;99.90;;;;;;5027054;28;20473;-83
2023/10/25 12:01:39;;;;;;;0.60;0.60;;;15.30;99.90;;;;;;5025829;28;21032;-85
2023/10/25 12:04:06;;;;;;;0.60;0.60;;;15.40;99.90;;;;;;5026312;28;20418;-81
2023/10/25 12:06:35;;;;;;;0.70;0.70;;;15.30;99.90;;;;;;5011328;28;20504;-80
2023/10/25 12:09:02;;;;;;;1.50;1.50;;;15.30;99.90;;;;;;5023983;28;20418;-83
2023/10/25 12:11:29;;;;;;;0.70;0.70;;;15.40;99.90;;;;;;5017070;28;20423;-80
2023/10/25 12:13:57;;;;;;;5.43;1.33;;;15.40;99.90;;;;;;5012422;28;20434;-85
2023/10/25 12:16:25;;;;;;;2.30;2.20;;;15.20;99.90;;;;;;5013043;28;20674;-81
2023/10/25 12:18:52;;;;;;;1.40;1.33;;;15.20;99.90;;;;;;5015762;28;20418;-80
2023/10/25 12:21:19;;;;;;;1.17;1.17;;;15.10;99.90;;;;;;5017403;28;20422;-82
2023/10/25 12:23:46;;;;;;;1.33;0.73;;;15.00;99.90;;;;;;5026029;28;20481;-82
2023/10/25 12:26:13;;;;;;;0.60;0.60;;;14.90;99.90;;;;;;5011383;28;20480;-85
2023/10/25 12:28:40;;;;;;;0.90;0.90;;;14.50;99.90;;;;;;5022148;28;20433;-86
2023/10/25 12:31:07;;;;;;;0.70;0.70;;;14.50;99.90;;;;;;5015413;28;20433;-79
2023/10/25 12:33:34;;;;;;;0.57;0.57;;;14.50;99.90;;;;;;5007363;28;20463;-86
2023/10/25 12:36:03;;;;;;;12.47;1.43;;;14.50;99.90;;;;;;5016027;28;20450;-83
2023/10/25 12:38:30;;;;;;;0.83;0.83;;;14.50;99.90;;;;;;5021211;28;20479;-81
2023/10/25 12:40:57;;;;;;;0.90;0.90;;;14.40;99.90;;;;;;5017138;28;20682;-82
2023/10/25 12:43:24;;;;;;;2.40;2.30;;;14.20;99.90;;;;;;5010526;28;20546;-85
2023/10/25 12:45:53;;;;;;;0.80;0.80;;;14.10;99.90;;;;;;5019598;28;20841;-81
2023/10/25 12:48:20;;;;;;;0.60;0.60;;;14.10;99.90;;;;;;5014536;28;20429;-81
2023/10/25 12:50:48;;;;;;;0.80;0.80;;;14.10;99.90;;;;;;5016842;28;20445;-84
2023/10/25 12:53:15;;;;;;;0.60;0.60;;;14.00;99.90;;;;;;5017172;28;20732;-80
2023/10/25 12:55:42;;;;;;;0.60;0.60;;;14.00;99.90;;;;;;5009556;28;20297;-82
2023/10/25 12:58:09;;;;;;;0.60;0.60;;;14.10;99.90;;;;;;5011423;28;20425;-80
2023/10/25 13:00:36;;;;;;;1.00;1.00;;;14.10;99.90;;;;;;5018714;28;20214;-80
2023/10/25 13:03:03;;;;;;;0.60;0.60;;;14.00;99.90;;;;;;5007600;28;20585;-80
2023/10/25 13:05:30;;;;;;;0.50;0.50;;;14.20;99.90;;;;;;5012923;28;20487;-81
2023/10/25 13:07:57;;;;;;;0.87;0.87;;;14.20;99.90;;;;;;5017235;28;20687;-82
2023/10/25 13:10:25;;;;;;;0.60;0.60;;;14.20;99.90;;;;;;5017175;28;20814;-80
2023/10/25 13:12:53;;;;;;;0.57;0.57;;;14.10;99.90;;;;;;5015547;28;20447;-79
2023/10/25 13:15:19;;;;;;;2.22;2.05;;;14.30;99.90;;;;;;5031550;28;20421;-83
2023/10/25 13:17:49;;;;;;;0.70;0.70;;;14.30;99.90;;;;;;5033451;28;20209;-82
2023/10/25 13:20:19;;;;;;;0.60;0.60;;;14.30;99.90;;;;;;5025468;28;20255;-85
2023/10/25 13:22:46;;;;;;;0.60;0.60;;;14.10;99.90;;;;;;5028553;28;20478;-80
2023/10/25 13:25:13;;;;;;;0.70;0.70;;;14.30;99.90;;;;;;5029174;28;20766;-79
2023/10/25 13:27:41;;;;;;;0.60;0.60;;;14.40;99.90;;;;;;5037701;28;20435;-82
2023/10/25 13:30:09;;;;;;;0.90;0.90;;;14.30;99.90;;;;;;5038009;28;20505;-83
2023/10/25 13:32:36;;;;;;;1.43;1.40;;;14.30;99.90;;;;;;5023672;28;20422;-84
2023/10/25 13:35:05;;;;;;;0.50;0.50;;;14.50;99.90;;;;;;5022341;28;20454;-87
2023/10/25 13:37:32;;;;;;;0.50;0.50;;;14.50;99.90;;;;;;5019507;28;20455;-79
2023/10/25 13:39:59;;;;;;;0.57;0.57;;;14.60;99.90;;;;;;5023190;28;20297;-80
2023/10/25 13:42:26;;;;;;;1.07;1.07;;;14.60;99.90;;;;;;5021318;28;20447;-80